sensor_id;sensor_type;location;lat;lon;timestamp;pressure;altitude;pressure_sealevel;temperature;humidity
55759;BME280;41678;52.126;20.664;2023-05-16T00:03:18;99475.72;;;11.79;74.81
55759;BME280;41678;52.126;20.664;2023-05-16T00:08:38;99468.72;;;11.77;74.44
55759;BME280;41678;52.126;20.664;2023-05-16T00:13:57;99472.28;;;11.76;74.79
55759;BME280;41678;52.126;20.664;2023-05-16T00:19:17;99464.38;;;11.76;74.67
55759;BME280;41678;52.126;20.664;2023-05-16T00:24:37;99473.16;;;11.77;74.66
55759;BME280;41678;52.126;20.664;2023-05-16T00:29:57;99482.63;;;11.83;74.55
55759;BME280;41678;52.126;20.664;2023-05-16T00:35:17;99490.66;;;11.80;75.06
55759;BME280;41678;52.126;20.664;2023-05-16T00:40:36;99476.75;;;11.74;74.91
55759;BME280;41678;52.126;20.664;2023-05-16T00:45:57;99480.16;;;11.78;74.99
55759;BME280;41678;52.126;20.664;2023-05-16T00:51:16;99482.69;;;11.81;75.63
55759;BME280;41678;52.126;20.664;2023-05-16T00:56:36;99474.78;;;11.81;74.86
55759;BME280;41678;52.126;20.664;2023-05-16T01:01:56;99488.81;;;11.82;74.69
55759;BME280;41678;52.126;20.664;2023-05-16T01:07:16;99494.09;;;11.82;74.81
55759;BME280;41678;52.126;20.664;2023-05-16T01:13:00;99495.91;;;11.80;75.20
55759;BME280;41678;52.126;20.664;2023-05-16T01:18:40;99503.84;;;11.80;75.01
55759;BME280;41678;52.126;20.664;2023-05-16T01:24:07;99506.47;;;11.80;74.88
55759;BME280;41678;52.126;20.664;2023-05-16T01:29:27;99510.66;;;11.87;74.67
55759;BME280;41678;52.126;20.664;2023-05-16T01:42:12;99526.59;;;11.84;75.78
55759;BME280;41678;52.126;20.664;2023-05-16T01:47:35;99522.16;;;11.84;75.46
55759;BME280;41678;52.126;20.664;2023-05-16T01:53:02;99521.31;;;11.84;74.90
55759;BME280;41678;52.126;20.664;2023-05-16T01:58:27;99532.03;;;11.77;75.31
55759;BME280;41678;52.126;20.664;2023-05-16T02:03:50;99532.03;;;11.77;74.54
55759;BME280;41678;52.126;20.664;2023-05-16T02:09:10;99531.25;;;11.74;75.08
55759;BME280;41678;52.126;20.664;2023-05-16T02:14:32;99532.38;;;11.65;75.10
55759;BME280;41678;52.126;20.664;2023-05-16T02:19:52;99533.41;;;11.59;75.28
55759;BME280;41678;52.126;20.664;2023-05-16T02:25:13;99537.00;;;11.57;74.80
55759;BME280;41678;52.126;20.664;2023-05-16T02:30:34;99534.53;;;11.51;75.02
55759;BME280;41678;52.126;20.664;2023-05-16T02:35:53;99533.78;;;11.45;75.07
55759;BME280;41678;52.126;20.664;2023-05-16T02:41:13;99538.34;;;11.40;74.82
55759;BME280;41678;52.126;20.664;2023-05-16T02:46:33;99536.66;;;11.36;74.63
55759;BME280;41678;52.126;20.664;2023-05-16T02:51:53;99529.94;;;11.26;74.55
55759;BME280;41678;52.126;20.664;2023-05-16T02:57:12;99546.59;;;11.26;74.74
55759;BME280;41678;52.126;20.664;2023-05-16T03:02:32;99548.53;;;11.19;74.90
55759;BME280;41678;52.126;20.664;2023-05-16T03:07:52;99537.22;;;11.16;74.36
55759;BME280;41678;52.126;20.664;2023-05-16T03:13:11;99540.78;;;11.13;74.89
55759;BME280;41678;52.126;20.664;2023-05-16T03:18:31;99537.41;;;11.08;75.39
55759;BME280;41678;52.126;20.664;2023-05-16T03:23:51;99545.34;;;11.07;74.83
55759;BME280;41678;52.126;20.664;2023-05-16T03:29:10;99546.28;;;11.04;75.06
55759;BME280;41678;52.126;20.664;2023-05-16T03:34:30;99540.16;;;11.03;74.96
55759;BME280;41678;52.126;20.664;2023-05-16T03:39:50;99551.31;;;11.13;75.93
55759;BME280;41678;52.126;20.664;2023-05-16T03:45:10;99542.69;;;11.08;75.16
55759;BME280;41678;52.126;20.664;2023-05-16T03:50:30;99546.16;;;11.10;75.09
55759;BME280;41678;52.126;20.664;2023-05-16T03:55:50;99544.25;;;11.15;76.04
55759;BME280;41678;52.126;20.664;2023-05-16T04:01:10;99551.16;;;11.19;75.90
55759;BME280;41678;52.126;20.664;2023-05-16T04:06:29;99557.41;;;11.17;76.07
55759;BME280;41678;52.126;20.664;2023-05-16T04:11:50;99552.16;;;11.15;76.34
55759;BME280;41678;52.126;20.664;2023-05-16T04:17:09;99566.97;;;11.19;76.11
55759;BME280;41678;52.126;20.664;2023-05-16T04:22:30;99566.91;;;11.23;76.32
55759;BME280;41678;52.126;20.664;2023-05-16T04:27:50;99565.03;;;11.26;75.76
55759;BME280;41678;52.126;20.664;2023-05-16T04:33:11;99584.06;;;11.39;76.54
55759;BME280;41678;52.126;20.664;2023-05-16T04:38:30;99589.97;;;11.47;76.95
55759;BME280;41678;52.126;20.664;2023-05-16T04:43:51;99591.59;;;11.52;77.20
55759;BME280;41678;52.126;20.664;2023-05-16T04:49:12;99592.28;;;11.60;77.29
55759;BME280;41678;52.126;20.664;2023-05-16T04:54:33;99590.38;;;11.65;78.21
55759;BME280;41678;52.126;20.664;2023-05-16T04:59:52;99607.78;;;11.72;78.55
55759;BME280;41678;52.126;20.664;2023-05-16T05:05:12;99609.41;;;11.76;78.13
55759;BME280;41678;52.126;20.664;2023-05-16T05:10:32;99603.97;;;11.83;78.66
55759;BME280;41678;52.126;20.664;2023-05-16T05:15:51;99606.34;;;11.92;79.23
55759;BME280;41678;52.126;20.664;2023-05-16T05:21:11;99609.59;;;12.03;78.94
55759;BME280;41678;52.126;20.664;2023-05-16T05:26:31;99618.19;;;12.10;79.43
55759;BME280;41678;52.126;20.664;2023-05-16T05:31:51;99617.75;;;12.26;79.55
55759;BME280;41678;52.126;20.664;2023-05-16T05:37:10;99633.31;;;12.35;79.09
55759;BME280;41678;52.126;20.664;2023-05-16T05:42:29;99637.47;;;12.44;79.66
55759;BME280;41678;52.126;20.664;2023-05-16T05:47:49;99656.38;;;12.58;80.21
55759;BME280;41678;52.126;20.664;2023-05-16T05:53:09;99663.25;;;12.64;80.32
55759;BME280;41678;52.126;20.664;2023-05-16T05:58:29;99682.38;;;12.74;79.78
55759;BME280;41678;52.126;20.664;2023-05-16T06:03:49;99683.06;;;12.79;80.29
55759;BME280;41678;52.126;20.664;2023-05-16T06:09:08;99695.34;;;12.82;79.99
55759;BME280;41678;52.126;20.664;2023-05-16T06:14:28;99716.13;;;12.93;80.52
55759;BME280;41678;52.126;20.664;2023-05-16T06:19:48;99727.69;;;12.88;79.73
55759;BME280;41678;52.126;20.664;2023-05-16T06:25:07;99733.81;;;12.91;79.68
55759;BME280;41678;52.126;20.664;2023-05-16T06:30:27;99742.22;;;13.03;79.67
55759;BME280;41678;52.126;20.664;2023-05-16T06:35:46;99745.72;;;13.04;80.16
55759;BME280;41678;52.126;20.664;2023-05-16T06:41:07;99758.06;;;13.05;79.93
55759;BME280;41678;52.126;20.664;2023-05-16T06:46:27;99769.34;;;13.10;79.92
55759;BME280;41678;52.126;20.664;2023-05-16T06:51:46;99784.28;;;13.11;79.77
55759;BME280;41678;52.126;20.664;2023-05-16T06:57:05;99796.72;;;13.08;79.00
55759;BME280;41678;52.126;20.664;2023-05-16T07:02:26;99794.06;;;13.08;79.48
55759;BME280;41678;52.126;20.664;2023-05-16T07:07:46;99800.28;;;13.07;79.49
55759;BME280;41678;52.126;20.664;2023-05-16T07:13:07;99812.47;;;13.11;79.75
55759;BME280;41678;52.126;20.664;2023-05-16T07:18:27;99826.59;;;13.10;79.50
55759;BME280;41678;52.126;20.664;2023-05-16T07:23:47;99842.56;;;13.07;79.29
55759;BME280;41678;52.126;20.664;2023-05-16T07:29:06;99841.31;;;13.18;78.81
55759;BME280;41678;52.126;20.664;2023-05-16T07:34:25;99837.34;;;13.35;78.73
55759;BME280;41678;52.126;20.664;2023-05-16T07:39:45;99856.41;;;13.46;78.87
55759;BME280;41678;52.126;20.664;2023-05-16T07:45:05;99859.59;;;13.58;79.12
55759;BME280;41678;52.126;20.664;2023-05-16T07:50:25;99862.44;;;13.80;79.50
55759;BME280;41678;52.126;20.664;2023-05-16T07:55:45;99860.44;;;13.87;79.00
55759;BME280;41678;52.126;20.664;2023-05-16T08:01:05;99863.94;;;13.87;78.54
55759;BME280;41678;52.126;20.664;2023-05-16T08:06:25;99876.03;;;13.96;78.53
55759;BME280;41678;52.126;20.664;2023-05-16T08:11:45;99878.47;;;14.02;78.22
55759;BME280;41678;52.126;20.664;2023-05-16T08:17:05;99874.09;;;14.01;78.20
55759;BME280;41678;52.126;20.664;2023-05-16T08:22:25;99879.28;;;14.05;77.83
55759;BME280;41678;52.126;20.664;2023-05-16T08:27:45;99881.91;;;14.06;77.45
55759;BME280;41678;52.126;20.664;2023-05-16T08:33:05;99860.50;;;14.12;77.91
55759;BME280;41678;52.126;20.664;2023-05-16T08:38:25;99874.41;;;14.19;77.54
55759;BME280;41678;52.126;20.664;2023-05-16T08:43:44;99882.25;;;14.22;77.42
55759;BME280;41678;52.126;20.664;2023-05-16T08:49:04;99882.09;;;14.27;77.36
55759;BME280;41678;52.126;20.664;2023-05-16T08:54:26;99889.69;;;14.38;77.62
55759;BME280;41678;52.126;20.664;2023-05-16T08:59:46;99890.59;;;14.37;77.32
55759;BME280;41678;52.126;20.664;2023-05-16T09:05:08;99884.34;;;14.39;77.37
55759;BME280;41678;52.126;20.664;2023-05-16T09:10:29;99885.84;;;14.47;77.18
55759;BME280;41678;52.126;20.664;2023-05-16T09:16:13;99891.72;;;14.56;76.87
55759;BME280;41678;52.126;20.664;2023-05-16T09:21:34;99907.00;;;14.75;76.50
55759;BME280;41678;52.126;20.664;2023-05-16T09:26:54;99910.03;;;14.90;76.42
55759;BME280;41678;52.126;20.664;2023-05-16T09:32:15;99917.00;;;14.92;76.30
55759;BME280;41678;52.126;20.664;2023-05-16T09:37:35;99934.59;;;14.95;76.19
55759;BME280;41678;52.126;20.664;2023-05-16T09:43:03;99951.09;;;15.03;76.15
55759;BME280;41678;52.126;20.664;2023-05-16T09:48:24;99950.97;;;15.06;75.74
55759;BME280;41678;52.126;20.664;2023-05-16T09:53:46;99957.75;;;15.15;75.81
55759;BME280;41678;52.126;20.664;2023-05-16T09:59:09;99975.91;;;15.26;75.42
55759;BME280;41678;52.126;20.664;2023-05-16T10:04:29;99991.00;;;15.24;75.67
55759;BME280;41678;52.126;20.664;2023-05-16T10:09:50;99988.97;;;15.32;75.44
55759;BME280;41678;52.126;20.664;2023-05-16T10:15:11;99998.31;;;15.42;75.21
55759;BME280;41678;52.126;20.664;2023-05-16T10:20:31;100002.56;;;15.47;75.03
55759;BME280;41678;52.126;20.664;2023-05-16T10:25:52;99994.41;;;15.53;75.05
55759;BME280;41678;52.126;20.664;2023-05-16T10:31:14;100011.81;;;15.60;75.37
55759;BME280;41678;52.126;20.664;2023-05-16T10:36:35;100015.50;;;15.56;74.66
55759;BME280;41678;52.126;20.664;2023-05-16T10:41:55;100010.16;;;15.57;74.71
55759;BME280;41678;52.126;20.664;2023-05-16T10:47:18;100009.06;;;15.63;74.33
55759;BME280;41678;52.126;20.664;2023-05-16T10:52:38;100001.97;;;15.64;74.17
55759;BME280;41678;52.126;20.664;2023-05-16T10:57:58;100010.41;;;15.75;74.27
55759;BME280;41678;52.126;20.664;2023-05-16T11:03:22;100013.56;;;15.85;74.31
55759;BME280;41678;52.126;20.664;2023-05-16T11:14:37;100031.09;;;15.91;73.98
55759;BME280;41678;52.126;20.664;2023-05-16T11:19:57;100031.09;;;15.91;73.73
55759;BME280;41678;52.126;20.664;2023-05-16T11:25:34;100029.88;;;15.99;73.82
55759;BME280;41678;52.126;20.664;2023-05-16T11:30:58;100037.53;;;16.07;73.54
55759;BME280;41678;52.126;20.664;2023-05-16T11:36:18;100035.63;;;16.11;73.43
55759;BME280;41678;52.126;20.664;2023-05-16T11:41:38;100037.25;;;16.15;73.36
55759;BME280;41678;52.126;20.664;2023-05-16T11:46:59;100056.13;;;16.31;73.50
55759;BME280;41678;52.126;20.664;2023-05-16T11:52:20;100047.88;;;16.37;73.14
55759;BME280;41678;52.126;20.664;2023-05-16T11:57:40;100056.31;;;16.49;72.94
55759;BME280;41678;52.126;20.664;2023-05-16T12:03:03;100061.22;;;16.58;72.58
55759;BME280;41678;52.126;20.664;2023-05-16T12:08:23;100059.28;;;16.63;72.23
55759;BME280;41678;52.126;20.664;2023-05-16T12:13:43;100059.19;;;16.65;72.21
55759;BME280;41678;52.126;20.664;2023-05-16T12:19:05;100059.06;;;16.68;72.52
55759;BME280;41678;52.126;20.664;2023-05-16T12:24:29;100066.84;;;16.73;72.53
55759;BME280;41678;52.126;20.664;2023-05-16T12:29:49;100061.50;;;16.74;72.07
55759;BME280;41678;52.126;20.664;2023-05-16T12:35:09;100064.00;;;16.77;71.94
55759;BME280;41678;52.126;20.664;2023-05-16T12:40:30;100070.13;;;16.79;72.15
55759;BME280;41678;52.126;20.664;2023-05-16T12:45:56;100059.38;;;16.82;71.98
55759;BME280;41678;52.126;20.664;2023-05-16T12:51:18;100064.38;;;16.90;72.00
55759;BME280;41678;52.126;20.664;2023-05-16T12:56:38;100065.84;;;16.99;71.77
55759;BME280;41678;52.126;20.664;2023-05-16T13:01:59;100053.63;;;16.93;71.80
55759;BME280;41678;52.126;20.664;2023-05-16T13:07:19;100071.03;;;17.02;71.69
55759;BME280;41678;52.126;20.664;2023-05-16T13:12:40;100060.31;;;17.04;71.41
55759;BME280;41678;52.126;20.664;2023-05-16T13:17:59;100071.50;;;17.12;71.31
55759;BME280;41678;52.126;20.664;2023-05-16T13:23:19;100074.28;;;17.09;71.30
55759;BME280;41678;52.126;20.664;2023-05-16T13:28:39;100076.03;;;17.10;71.10
55759;BME280;41678;52.126;20.664;2023-05-16T13:33:58;100075.94;;;17.11;71.24
55759;BME280;41678;52.126;20.664;2023-05-16T13:39:18;100070.09;;;17.24;71.12
55759;BME280;41678;52.126;20.664;2023-05-16T13:44:37;100074.63;;;17.22;70.83
55759;BME280;41678;52.126;20.664;2023-05-16T13:49:57;100075.38;;;17.25;70.85
55759;BME280;41678;52.126;20.664;2023-05-16T13:55:18;100081.44;;;17.29;70.42
55759;BME280;41678;52.126;20.664;2023-05-16T14:00:38;100082.22;;;17.31;70.26
55759;BME280;41678;52.126;20.664;2023-05-16T14:05:58;100087.25;;;17.37;69.93
55759;BME280;41678;52.126;20.664;2023-05-16T14:11:17;100079.28;;;17.37;69.72
55759;BME280;41678;52.126;20.664;2023-05-16T14:16:38;100076.69;;;17.36;69.26
55759;BME280;41678;52.126;20.664;2023-05-16T14:22:03;100078.44;;;17.37;69.49
55759;BME280;41678;52.126;20.664;2023-05-16T14:27:23;100078.50;;;17.35;69.42
55759;BME280;41678;52.126;20.664;2023-05-16T14:32:42;100070.22;;;17.41;69.31
55759;BME280;41678;52.126;20.664;2023-05-16T14:38:01;100075.97;;;17.32;69.45
55759;BME280;41678;52.126;20.664;2023-05-16T14:43:21;100074.09;;;17.34;69.44
55759;BME280;41678;52.126;20.664;2023-05-16T14:48:40;100075.44;;;17.45;68.96
55759;BME280;41678;52.126;20.664;2023-05-16T14:54:00;100074.63;;;17.42;68.96
55759;BME280;41678;52.126;20.664;2023-05-16T14:59:19;100076.69;;;17.36;68.97
55759;BME280;41678;52.126;20.664;2023-05-16T15:04:39;100083.00;;;17.33;68.78
55759;BME280;41678;52.126;20.664;2023-05-16T15:09:58;100077.69;;;17.33;68.87
55759;BME280;41678;52.126;20.664;2023-05-16T15:15:18;100081.44;;;17.29;68.99
55759;BME280;41678;52.126;20.664;2023-05-16T15:20:38;100074.25;;;17.31;69.00
55759;BME280;41678;52.126;20.664;2023-05-16T15:25:57;100078.63;;;17.32;68.95
55759;BME280;41678;52.126;20.664;2023-05-16T15:31:17;100077.00;;;17.28;69.09
55759;BME280;41678;52.126;20.664;2023-05-16T15:36:36;100079.47;;;17.33;69.06
55759;BME280;41678;52.126;20.664;2023-05-16T15:41:56;100079.34;;;17.36;68.90
55759;BME280;41678;52.126;20.664;2023-05-16T15:47:16;100082.88;;;17.36;68.71
55759;BME280;41678;52.126;20.664;2023-05-16T15:52:35;100075.78;;;17.37;68.83
55759;BME280;41678;52.126;20.664;2023-05-16T15:57:56;100066.84;;;17.38;68.84
55759;BME280;41678;52.126;20.664;2023-05-16T16:03:16;100065.84;;;17.40;68.45
55759;BME280;41678;52.126;20.664;2023-05-16T16:08:36;100059.59;;;17.41;68.16
55759;BME280;41678;52.126;20.664;2023-05-16T16:13:55;100053.81;;;17.32;68.65
55759;BME280;41678;52.126;20.664;2023-05-16T16:19:15;100046.91;;;17.27;68.62
55759;BME280;41678;52.126;20.664;2023-05-16T16:24:35;100056.66;;;17.27;68.77
55759;BME280;41678;52.126;20.664;2023-05-16T16:29:54;100060.25;;;17.26;68.76
55759;BME280;41678;52.126;20.664;2023-05-16T16:35:14;100055.84;;;17.25;68.72
55759;BME280;41678;52.126;20.664;2023-05-16T16:40:34;100055.19;;;17.20;68.70
55759;BME280;41678;52.126;20.664;2023-05-16T16:45:53;100053.47;;;17.19;68.80
55759;BME280;41678;52.126;20.664;2023-05-16T16:51:13;100051.75;;;17.18;68.72
55759;BME280;41678;52.126;20.664;2023-05-16T16:56:33;100063.31;;;17.17;68.80
55759;BME280;41678;52.126;20.664;2023-05-16T17:01:52;100049.22;;;17.15;69.20
55759;BME280;41678;52.126;20.664;2023-05-16T17:07:12;100062.53;;;17.15;68.89
55759;BME280;41678;52.126;20.664;2023-05-16T17:12:33;100060.91;;;17.10;68.90
55759;BME280;41678;52.126;20.664;2023-05-16T17:17:52;100061.03;;;17.07;68.76
55759;BME280;41678;52.126;20.664;2023-05-16T17:23:12;100069.06;;;17.06;68.79
55759;BME280;41678;52.126;20.664;2023-05-16T17:28:32;100076.47;;;16.99;68.66
55759;BME280;41678;52.126;20.664;2023-05-16T17:33:53;100079.19;;;16.96;68.93
55759;BME280;41678;52.126;20.664;2023-05-16T17:39:12;100078.53;;;16.91;68.86
55759;BME280;41678;52.126;20.664;2023-05-16T17:44:33;100084.00;;;16.88;68.91
55759;BME280;41678;52.126;20.664;2023-05-16T17:49:52;100087.63;;;16.85;69.16
55759;BME280;41678;52.126;20.664;2023-05-16T17:55:12;100093.22;;;16.79;69.17
55759;BME280;41678;52.126;20.664;2023-05-16T18:00:32;100098.72;;;16.74;69.05
55759;BME280;41678;52.126;20.664;2023-05-16T18:05:52;100098.03;;;16.69;69.07
55759;BME280;41678;52.126;20.664;2023-05-16T18:11:11;100105.31;;;16.64;69.02
55759;BME280;41678;52.126;20.664;2023-05-16T18:16:31;100100.13;;;16.61;68.94
55759;BME280;41678;52.126;20.664;2023-05-16T18:21:51;100106.53;;;16.55;68.89
55759;BME280;41678;52.126;20.664;2023-05-16T18:27:11;100097.13;;;16.46;68.85
55759;BME280;41678;52.126;20.664;2023-05-16T18:32:31;100101.66;;;16.44;69.11
55759;BME280;41678;52.126;20.664;2023-05-16T18:37:51;100106.28;;;16.39;68.91
55759;BME280;41678;52.126;20.664;2023-05-16T18:43:10;100106.47;;;16.34;68.89
55759;BME280;41678;52.126;20.664;2023-05-16T18:48:30;100111.03;;;16.31;68.68
55759;BME280;41678;52.126;20.664;2023-05-16T18:53:50;100113.91;;;16.24;68.86
55759;BME280;41678;52.126;20.664;2023-05-16T18:59:11;100120.31;;;16.19;68.53
55759;BME280;41678;52.126;20.664;2023-05-16T19:04:30;100117.84;;;16.14;68.87
55759;BME280;41678;52.126;20.664;2023-05-16T19:09:51;100114.50;;;16.09;68.75
55759;BME280;41678;52.126;20.664;2023-05-16T19:15:11;100120.03;;;16.03;68.85
55759;BME280;41678;52.126;20.664;2023-05-16T19:20:32;100121.09;;;15.97;68.73
55759;BME280;41678;52.126;20.664;2023-05-16T19:25:51;100124.84;;;15.91;68.81
55759;BME280;41678;52.126;20.664;2023-05-16T19:31:11;100119.69;;;15.86;68.66
55759;BME280;41678;52.126;20.664;2023-05-16T19:36:31;100118.94;;;15.83;68.82
55759;BME280;41678;52.126;20.664;2023-05-16T19:41:52;100131.53;;;15.78;68.79
55759;BME280;41678;52.126;20.664;2023-05-16T19:47:13;100126.38;;;15.73;68.92
55759;BME280;41678;52.126;20.664;2023-05-16T19:52:33;100140.50;;;15.73;68.90
55759;BME280;41678;52.126;20.664;2023-05-16T19:57:54;100132.59;;;15.72;69.29
55759;BME280;41678;52.126;20.664;2023-05-16T20:03:13;100130.31;;;15.61;68.80
55759;BME280;41678;52.126;20.664;2023-05-16T20:08:33;100134.78;;;15.59;68.99
55759;BME280;41678;52.126;20.664;2023-05-16T20:13:53;100128.09;;;15.49;69.07
55759;BME280;41678;52.126;20.664;2023-05-16T20:19:14;100134.41;;;15.44;69.14
55759;BME280;41678;52.126;20.664;2023-05-16T20:24:33;100120.44;;;15.39;69.13
55759;BME280;41678;52.126;20.664;2023-05-16T20:29:52;100123.25;;;15.35;69.14
55759;BME280;41678;52.126;20.664;2023-05-16T20:35:12;100121.53;;;15.34;69.12
55759;BME280;41678;52.126;20.664;2023-05-16T20:40:33;100126.16;;;15.27;69.20
55759;BME280;41678;52.126;20.664;2023-05-16T20:45:53;100128.88;;;15.25;69.16
55759;BME280;41678;52.126;20.664;2023-05-16T20:51:12;100131.69;;;15.21;69.28
55759;BME280;41678;52.126;20.664;2023-05-16T20:56:32;100143.25;;;15.18;69.05
55759;BME280;41678;52.126;20.664;2023-05-16T21:01:51;100141.63;;;15.14;69.12
55759;BME280;41678;52.126;20.664;2023-05-16T21:07:11;100147.06;;;15.09;69.37
55759;BME280;41678;52.126;20.664;2023-05-16T21:12:31;100133.16;;;15.02;69.24
55759;BME280;41678;52.126;20.664;2023-05-16T21:17:50;100142.78;;;15.05;69.26
55759;BME280;41678;52.126;20.664;2023-05-16T21:23:11;100142.91;;;15.02;69.14
55759;BME280;41678;52.126;20.664;2023-05-16T21:28:30;100134.41;;;14.91;69.50
55759;BME280;41678;52.126;20.664;2023-05-16T21:33:50;100145.72;;;14.96;69.25
55759;BME280;41678;52.126;20.664;2023-05-16T21:39:10;100144.81;;;14.97;69.37
55759;BME280;41678;52.126;20.664;2023-05-16T21:44:29;100145.69;;;14.97;69.25
55759;BME280;41678;52.126;20.664;2023-05-16T21:49:50;100135.09;;;14.97;69.57
55759;BME280;41678;52.126;20.664;2023-05-16T21:55:09;100150.31;;;14.91;69.97
55759;BME280;41678;52.126;20.664;2023-05-16T22:06:29;100149.81;;;14.78;69.58
55759;BME280;41678;52.126;20.664;2023-05-16T22:11:49;100150.81;;;14.75;69.67
55759;BME280;41678;52.126;20.664;2023-05-16T22:17:08;100139.41;;;14.73;69.76
55759;BME280;41678;52.126;20.664;2023-05-16T22:22:28;100137.75;;;14.67;69.56
55759;BME280;41678;52.126;20.664;2023-05-16T22:27:47;100144.00;;;14.65;69.75
55759;BME280;41678;52.126;20.664;2023-05-16T22:33:07;100145.84;;;14.63;69.86
55759;BME280;41678;52.126;20.664;2023-05-16T22:38:27;100141.50;;;14.60;69.70
55759;BME280;41678;52.126;20.664;2023-05-16T22:43:46;100145.06;;;14.59;69.65
55759;BME280;41678;52.126;20.664;2023-05-16T22:49:06;100142.47;;;14.57;69.80
55759;BME280;41678;52.126;20.664;2023-05-16T22:54:26;100150.47;;;14.56;69.88
55759;BME280;41678;52.126;20.664;2023-05-16T22:59:45;100147.00;;;14.54;70.11
55759;BME280;41678;52.126;20.664;2023-05-16T23:05:05;100154.84;;;14.57;70.14
55759;BME280;41678;52.126;20.664;2023-05-16T23:10:25;100155.78;;;14.54;70.14
55759;BME280;41678;52.126;20.664;2023-05-16T23:15:45;100149.69;;;14.52;70.28
55759;BME280;41678;52.126;20.664;2023-05-16T23:21:05;100147.69;;;14.61;70.87
55759;BME280;41678;52.126;20.664;2023-05-16T23:26:25;100154.72;;;14.62;71.07
55759;BME280;41678;52.126;20.664;2023-05-16T23:31:44;100149.59;;;14.55;71.43
55759;BME280;41678;52.126;20.664;2023-05-16T23:37:04;100151.47;;;14.52;71.79
55759;BME280;41678;52.126;20.664;2023-05-16T23:42:24;100150.56;;;14.53;71.55
55759;BME280;41678;52.126;20.664;2023-05-16T23:47:43;100151.81;;;14.41;71.99
55759;BME280;41678;52.126;20.664;2023-05-16T23:53:03;100151.97;;;14.35;71.92
55759;BME280;41678;52.126;20.664;2023-05-16T23:58:23;100150.03;;;14.40;72.33
